createdAt,value
2022-08-10T00:01:53.538Z,101824.91
2022-08-10T00:04:22.703Z,101825.06
2022-08-10T00:06:51.891Z,101825.06
2022-08-10T00:09:18.444Z,101827.72
2022-08-10T00:11:45.000Z,101828.69
2022-08-10T00:14:11.467Z,101821.78
2022-08-10T00:16:37.912Z,101822.00
2022-08-10T00:19:04.462Z,101822.16
2022-08-10T00:21:30.903Z,101824.09
2022-08-10T00:23:57.384Z,101819.72
2022-08-10T00:26:23.888Z,101817.09
2022-08-10T00:28:50.373Z,101812.84
2022-08-10T00:31:16.964Z,101812.84
2022-08-10T00:33:43.444Z,101819.97
2022-08-10T00:36:10.105Z,101816.44
2022-08-10T00:38:37.598Z,101817.56
2022-08-10T00:41:04.343Z,101820.22
2022-08-10T00:43:30.919Z,101815.03
2022-08-10T00:45:58.813Z,101815.13
2022-08-10T00:48:30.131Z,101808.31
2022-08-10T00:50:58.993Z,101809.38
2022-08-10T00:53:27.565Z,101802.41
2022-08-10T00:57:14.095Z,101802.41
2022-08-10T00:58:41.065Z,101805.94
2022-08-10T01:01:07.627Z,101806.72
2022-08-10T01:04:36.594Z,101804.28
2022-08-10T01:06:52.587Z,101799.94
2022-08-10T01:09:32.091Z,101807.19
2022-08-10T01:12:39.650Z,101806.34
2022-08-10T01:15:22.660Z,101803.94
2022-08-10T01:17:52.064Z,101806.69
2022-08-10T01:20:44.711Z,101806.75
2022-08-10T01:23:26.046Z,101798.84
2022-08-10T01:26:31.355Z,101803.41
2022-08-10T01:29:29.386Z,101795.50
2022-08-10T01:32:02.129Z,101798.38
2022-08-10T01:34:36.715Z,101800.22
2022-08-10T01:37:11.866Z,101794.25
2022-08-10T01:39:42.101Z,101797.91
2022-08-10T01:42:13.074Z,101793.50
2022-08-10T01:44:45.433Z,101798.81
2022-08-10T01:47:35.009Z,101798.09
2022-08-10T01:50:12.090Z,101798.09
2022-08-10T01:52:43.066Z,101794.66
2022-08-10T01:55:12.355Z,101795.66
2022-08-10T01:57:40.934Z,101789.66
2022-08-10T02:00:08.829Z,101798.63
2022-08-10T02:02:37.662Z,101799.56
2022-08-10T02:05:06.747Z,101793.50
2022-08-10T02:07:37.889Z,101793.56
2022-08-10T02:10:10.821Z,101801.63
2022-08-10T02:12:39.032Z,101794.50
2022-08-10T02:15:13.047Z,101793.72
2022-08-10T02:18:00.388Z,101794.72
2022-08-10T02:20:34.980Z,101795.72
2022-08-10T02:23:12.729Z,101790.50
2022-08-10T02:25:43.678Z,101790.47
2022-08-10T02:28:27.496Z,101798.63
2022-08-10T02:31:01.651Z,101789.00
2022-08-10T02:33:30.313Z,101795.31
2022-08-10T02:36:00.447Z,101799.00
2022-08-10T02:38:58.408Z,101802.84
2022-08-10T02:45:12.323Z,101810.88
2022-08-10T02:45:24.229Z,101808.31
2022-08-10T02:47:51.307Z,101803.22
2022-08-10T02:50:21.785Z,101805.09
2022-08-10T02:52:53.799Z,101805.94
2022-08-10T02:55:32.737Z,101805.16
2022-08-10T02:58:16.923Z,101795.31
2022-08-10T03:00:49.655Z,101806.19
2022-08-10T03:03:26.226Z,101794.88
2022-08-10T03:05:59.794Z,101795.84
2022-08-10T03:08:30.863Z,101793.31
2022-08-10T03:11:01.244Z,101786.44
2022-08-10T03:13:30.906Z,101792.19
2022-08-10T03:16:00.187Z,101790.53
2022-08-10T03:18:27.046Z,101782.72
2022-08-10T03:20:55.771Z,101786.25
2022-08-10T03:23:24.797Z,101791.94
2022-08-10T03:25:54.885Z,101788.63
2022-08-10T03:28:23.935Z,101789.84
2022-08-10T03:30:51.075Z,101787.34
2022-08-10T03:33:20.291Z,101784.28
2022-08-10T03:36:42.732Z,101788.84
2022-08-10T03:38:34.437Z,101789.03
2022-08-10T03:41:03.969Z,101785.53
2022-08-10T03:43:31.659Z,101781.47
2022-08-10T03:46:01.001Z,101784.38
2022-08-10T03:48:32.261Z,101786.13
2022-08-10T03:51:17.377Z,101785.00
2022-08-10T03:54:04.336Z,101783.56
2022-08-10T03:56:33.116Z,101790.66
2022-08-10T03:59:01.272Z,101796.47
2022-08-10T04:02:46.822Z,101791.38
2022-08-10T04:04:22.479Z,101790.25
2022-08-10T04:06:54.462Z,101788.25
2022-08-10T04:09:23.107Z,101798.69
2022-08-10T04:11:49.651Z,101795.00
2022-08-10T04:14:38.380Z,101797.41
2022-08-10T04:17:02.727Z,101807.94
2022-08-10T04:19:35.536Z,101802.50
2022-08-10T04:22:13.725Z,101811.22
2022-08-10T04:24:41.856Z,101804.97
2022-08-10T04:27:09.474Z,101803.25
2022-08-10T04:29:36.423Z,101803.91
2022-08-10T04:32:04.536Z,101803.84
2022-08-10T04:34:32.406Z,101800.31
2022-08-10T04:37:08.777Z,101802.19
2022-08-10T04:39:36.417Z,101805.97
2022-08-10T04:42:03.628Z,101803.59
2022-08-10T04:44:30.446Z,101803.56
2022-08-10T04:46:59.267Z,101796.47
2022-08-10T04:49:54.574Z,101802.63
2022-08-10T04:52:13.658Z,101805.16
2022-08-10T04:54:40.131Z,101803.31
2022-08-10T04:57:08.848Z,101798.00
2022-08-10T04:59:35.383Z,101805.91
2022-08-10T05:02:30.312Z,101805.81
2022-08-10T05:04:48.309Z,101800.66
2022-08-10T05:07:18.525Z,101806.25
2022-08-10T05:10:01.453Z,101799.66
2022-08-10T05:12:30.178Z,101797.06
2022-08-10T05:14:56.889Z,101803.19
2022-08-10T05:17:24.215Z,101798.56
2022-08-10T05:20:05.073Z,101801.97
2022-08-10T05:22:38.505Z,101805.38
2022-08-10T05:25:07.233Z,101803.56
2022-08-10T05:27:34.412Z,101807.09
2022-08-10T05:30:03.126Z,101809.69
2022-08-10T05:32:55.679Z,101798.06
2022-08-10T05:35:21.590Z,101805.03
2022-08-10T05:38:11.907Z,101805.03
2022-08-10T05:40:39.277Z,101810.22
2022-08-10T05:43:05.996Z,101812.78
2022-08-10T05:45:32.511Z,101817.09
2022-08-10T05:48:53.869Z,101817.84
2022-08-10T05:50:45.608Z,101815.97
2022-08-10T05:54:02.154Z,101815.13
2022-08-10T05:55:59.516Z,101815.06
2022-08-10T05:58:26.151Z,101821.19
2022-08-10T06:00:55.896Z,101820.22
2022-08-10T06:03:43.624Z,101819.28
2022-08-10T06:06:10.309Z,101823.66
2022-08-10T06:08:41.112Z,101817.38
2022-08-10T06:12:27.217Z,101824.38
2022-08-10T06:14:16.032Z,101828.63
2022-08-10T06:16:44.894Z,101820.72
2022-08-10T06:19:15.227Z,101817.88
2022-08-10T06:22:00.858Z,101824.81
2022-08-10T06:24:31.316Z,101817.56
2022-08-10T06:26:59.420Z,101814.75
2022-08-10T06:29:29.555Z,101819.91
2022-08-10T06:31:57.254Z,101825.16
2022-08-10T06:34:29.172Z,101825.03
2022-08-10T06:36:59.302Z,101824.94
2022-08-10T06:39:41.596Z,101824.84
2022-08-10T06:42:18.018Z,101832.69
2022-08-10T06:45:07.892Z,101826.47
2022-08-10T06:47:41.769Z,101828.19
2022-08-10T06:50:17.481Z,101834.06
2022-08-10T06:53:03.745Z,101823.19
2022-08-10T06:55:49.628Z,101830.25
2022-08-10T06:58:21.435Z,101831.03
2022-08-10T07:00:55.310Z,101823.94
2022-08-10T07:03:31.513Z,101830.97
2022-08-10T07:06:00.509Z,101830.88
2022-08-10T07:08:31.508Z,101832.53
2022-08-10T07:10:58.805Z,101831.59
2022-08-10T07:14:16.733Z,101827.94
2022-08-10T07:16:16.079Z,101827.78
2022-08-10T07:18:44.433Z,101830.25
2022-08-10T07:21:12.516Z,101827.53
2022-08-10T07:23:58.185Z,101823.56
2022-08-10T07:26:28.666Z,101823.31
2022-08-10T07:28:55.806Z,101825.06
2022-08-10T07:31:56.509Z,101816.06
2022-08-10T07:34:11.345Z,101825.72
2022-08-10T07:36:40.599Z,101828.38
2022-08-10T07:39:10.289Z,101837.16
2022-08-10T07:41:41.062Z,101832.63
2022-08-10T07:44:11.296Z,101832.41
2022-08-10T07:46:43.489Z,101838.56
2022-08-10T07:49:19.843Z,101842.94
2022-08-10T07:51:54.681Z,101837.03
2022-08-10T07:54:25.259Z,101839.50
2022-08-10T07:56:55.465Z,101840.38
2022-08-10T07:59:37.220Z,101851.16
2022-08-10T08:02:07.076Z,101853.84
2022-08-10T08:04:35.125Z,101847.66
2022-08-10T08:07:04.441Z,101840.53
2022-08-10T08:09:33.292Z,101844.06
2022-08-10T08:12:01.234Z,101849.34
2022-08-10T08:14:28.562Z,101847.47
2022-08-10T08:16:56.332Z,101852.31
2022-08-10T08:19:32.816Z,101851.88
2022-08-10T08:24:08.802Z,101845.41
2022-08-10T08:24:54.904Z,101843.56
2022-08-10T08:27:23.447Z,101833.84
2022-08-10T08:29:51.911Z,101836.66
2022-08-10T08:32:31.127Z,101830.13
2022-08-10T08:35:13.109Z,101830.50
2022-08-10T08:38:28.895Z,101833.31
2022-08-10T08:40:33.460Z,101829.88
2022-08-10T08:43:32.147Z,101828.34
2022-08-10T08:46:41.471Z,101822.88
2022-08-10T08:50:07.426Z,101828.94
2022-08-10T08:52:42.926Z,101827.53
2022-08-10T08:56:03.672Z,101823.25
2022-08-10T08:58:56.882Z,101822.88
2022-08-10T09:01:41.297Z,101809.53
2022-08-10T09:04:43.434Z,101811.88
2022-08-10T09:08:00.164Z,101806.47
2022-08-10T09:11:00.206Z,101803.97
2022-08-10T09:13:54.514Z,101799.56
2022-08-10T09:17:01.136Z,101790.44
2022-08-10T09:19:47.168Z,101797.22
2022-08-10T09:22:35.727Z,101792.63
2022-08-10T09:25:26.061Z,101786.06
2022-08-10T09:28:11.508Z,101783.94
2022-08-10T09:31:21.324Z,101781.31
2022-08-10T09:36:23.504Z,101781.38
2022-08-10T09:37:20.201Z,101776.53
2022-08-10T09:40:12.382Z,101768.59
2022-08-10T09:43:25.819Z,101777.66
2022-08-10T09:46:02.990Z,101772.41
2022-08-10T09:48:45.721Z,101766.22
2022-08-10T09:51:49.178Z,101766.97
2022-08-10T09:54:22.182Z,101770.78
2022-08-10T09:57:11.939Z,101767.84
2022-08-10T10:00:25.979Z,101761.69
2022-08-10T10:03:16.971Z,101756.13
2022-08-10T10:05:51.230Z,101756.84
2022-08-10T10:08:21.903Z,101747.16
2022-08-10T10:11:02.662Z,101748.88
2022-08-10T10:14:02.195Z,101749.34
2022-08-10T10:16:48.929Z,101744.72
2022-08-10T10:19:43.221Z,101744.47
2022-08-10T10:22:28.475Z,101733.44
2022-08-10T10:25:20.015Z,101732.81
2022-08-10T10:28:23.012Z,101735.25
2022-08-10T10:31:01.326Z,101733.44
2022-08-10T10:33:54.415Z,101732.69
2022-08-10T10:36:22.095Z,101729.81
2022-08-10T10:38:49.817Z,101724.91
2022-08-10T10:41:31.278Z,101724.75
2022-08-10T10:44:21.670Z,101719.84
2022-08-10T10:47:07.846Z,101722.53
2022-08-10T10:49:46.354Z,101716.97
2022-08-10T10:52:37.874Z,101719.16
2022-08-10T10:55:30.882Z,101708.13
2022-08-10T10:58:20.151Z,101706.22
2022-08-10T11:01:22.367Z,101707.59
2022-08-10T11:04:07.674Z,101703.03
2022-08-10T11:06:48.186Z,101692.09
2022-08-10T11:10:05.528Z,101686.56
2022-08-10T11:12:29.369Z,101690.19
2022-08-10T11:15:09.689Z,101682.91
2022-08-10T11:17:46.792Z,101685.72
2022-08-10T11:20:22.409Z,101679.19
2022-08-10T11:23:20.274Z,101678.41
2022-08-10T11:25:57.862Z,101683.03
2022-08-10T11:28:37.358Z,101679.19
2022-08-10T11:31:15.889Z,101676.94
2022-08-10T11:34:48.892Z,101679.19
2022-08-10T11:36:59.321Z,101674.00
2022-08-10T11:39:48.878Z,101676.53
2022-08-10T11:42:31.605Z,101671.91
2022-08-10T11:45:25.448Z,101671.06
2022-08-10T11:47:56.476Z,101666.66
2022-08-10T11:50:28.475Z,101663.03
2022-08-10T11:53:15.964Z,101654.41
2022-08-10T11:55:49.253Z,101657.25
2022-08-10T11:58:36.379Z,101654.72
2022-08-10T12:01:06.523Z,101648.97
2022-08-10T12:03:36.085Z,101650.34
2022-08-10T12:06:06.097Z,101655.91
2022-08-10T12:10:02.166Z,101654.66
2022-08-10T12:11:26.774Z,101652.38
2022-08-10T12:14:42.915Z,101650.34
2022-08-10T12:17:15.879Z,101641.47
2022-08-10T12:20:01.567Z,101647.28
2022-08-10T12:22:41.344Z,101644.94
2022-08-10T12:25:17.865Z,101639.47
2022-08-10T12:28:09.988Z,101638.81
2022-08-10T12:30:42.140Z,101640.78
2022-08-10T12:33:21.177Z,101644.59
2022-08-10T12:36:18.449Z,101629.63
2022-08-10T12:39:18.953Z,101622.56
2022-08-10T12:41:45.709Z,101629.06
2022-08-10T12:44:18.224Z,101621.47
2022-08-10T12:46:56.924Z,101616.81
2022-08-10T12:49:32.542Z,101608.56
2022-08-10T12:52:23.628Z,101600.09
2022-08-10T12:54:53.665Z,101605.31
2022-08-10T12:57:24.595Z,101592.03
2022-08-10T13:00:04.838Z,101591.84
2022-08-10T13:02:34.754Z,101591.56
2022-08-10T13:05:05.141Z,101599.81
2022-08-10T13:08:24.579Z,101593.41
2022-08-10T13:10:23.090Z,101582.56
2022-08-10T13:12:54.253Z,101583.50
2022-08-10T13:15:49.694Z,101587.44
2022-08-10T13:18:25.063Z,101581.22
2022-08-10T13:20:54.886Z,101580.50
2022-08-10T13:23:24.925Z,101574.66
2022-08-10T13:25:54.930Z,101575.53
2022-08-10T13:28:37.549Z,101583.41
2022-08-10T13:31:16.724Z,101568.47
2022-08-10T13:34:39.510Z,101573.19
2022-08-10T13:36:46.326Z,101568.59
2022-08-10T13:39:14.558Z,101572.69
2022-08-10T13:41:44.150Z,101572.75
2022-08-10T13:44:14.787Z,101572.88
2022-08-10T13:46:49.860Z,101567.47
2022-08-10T13:49:19.035Z,101559.97
2022-08-10T13:51:54.278Z,101564.19
2022-08-10T13:54:39.126Z,101555.28
2022-08-10T13:57:06.785Z,101552.59
2022-08-10T14:00:34.568Z,101553.06
2022-08-10T14:02:29.868Z,101550.38
2022-08-10T14:04:58.603Z,101551.88
2022-08-10T14:07:26.801Z,101548.25
2022-08-10T14:09:59.349Z,101538.94
2022-08-10T14:12:32.178Z,101548.38
2022-08-10T14:15:03.122Z,101550.72
2022-08-10T14:17:31.144Z,101548.06
2022-08-10T14:19:59.692Z,101537.63
2022-08-10T14:22:33.669Z,101525.22
2022-08-10T14:25:27.426Z,101534.41
2022-08-10T14:28:03.315Z,101527.06
2022-08-10T14:30:33.379Z,101533.63
2022-08-10T14:33:04.354Z,101523.06
2022-08-10T14:36:18.940Z,101535.22
2022-08-10T14:38:25.416Z,101529.22
2022-08-10T14:40:55.298Z,101530.19
2022-08-10T14:43:39.269Z,101529.34
2022-08-10T14:46:11.107Z,101519.16
2022-08-10T14:48:43.491Z,101527.25
2022-08-10T14:51:12.764Z,101518.44
2022-08-10T14:53:43.837Z,101511.47
2022-08-10T14:56:17.714Z,101515.38
2022-08-10T14:58:59.306Z,101516.84
2022-08-10T15:02:01.514Z,101509.50
2022-08-10T15:04:24.664Z,101509.22
2022-08-10T15:06:55.938Z,101507.38
2022-08-10T15:09:25.384Z,101501.28
2022-08-10T15:12:13.572Z,101503.13
2022-08-10T15:14:45.710Z,101500.06
2022-08-10T15:17:17.179Z,101498.56
2022-08-10T15:20:02.124Z,101496.75
2022-08-10T15:22:46.680Z,101499.56
2022-08-10T15:25:18.032Z,101492.72
2022-08-10T15:27:55.064Z,101484.97
2022-08-10T15:30:29.795Z,101487.81
2022-08-10T15:33:21.230Z,101481.16
2022-08-10T15:36:24.668Z,101476.91
2022-08-10T15:38:59.184Z,101484.13
2022-08-10T15:41:59.366Z,101485.34
2022-08-10T15:44:38.406Z,101480.09
2022-08-10T15:47:08.806Z,101480.19
2022-08-10T15:49:45.464Z,101486.44
2022-08-10T15:53:01.678Z,101483.88
2022-08-10T15:55:45.639Z,101477.50
2022-08-10T15:58:37.681Z,101480.66
2022-08-10T16:02:12.567Z,101473.75
2022-08-10T16:04:47.720Z,101472.53
2022-08-10T16:07:21.818Z,101474.72
2022-08-10T16:10:24.332Z,101469.31
2022-08-10T16:12:59.227Z,101468.22
2022-08-10T16:15:28.332Z,101473.22
2022-08-10T16:18:00.643Z,101473.00
2022-08-10T16:20:32.190Z,101468.53
2022-08-10T16:23:02.649Z,101467.22
2022-08-10T16:25:47.842Z,101473.34
2022-08-10T16:28:20.021Z,101463.31
2022-08-10T16:30:54.443Z,101459.94
2022-08-10T16:33:53.697Z,101455.28
2022-08-10T16:36:17.006Z,101460.28
2022-08-10T16:38:46.692Z,101446.66
2022-08-10T16:41:20.947Z,101457.34
2022-08-10T16:44:02.245Z,101460.34
2022-08-10T16:46:29.732Z,101461.53
2022-08-10T16:48:58.156Z,101459.81
2022-08-10T16:51:25.615Z,101456.75
2022-08-10T16:53:52.917Z,101462.88
2022-08-10T16:56:32.556Z,101457.97
2022-08-10T16:59:02.598Z,101451.47
2022-08-10T17:01:36.658Z,101449.50
2022-08-10T17:04:09.936Z,101452.72
2022-08-10T17:06:58.771Z,101451.53
2022-08-10T17:09:28.914Z,101452.38
2022-08-10T17:11:58.163Z,101438.50
2022-08-10T17:14:27.660Z,101443.28
2022-08-10T17:17:00.231Z,101444.16
2022-08-10T17:19:29.769Z,101447.69
2022-08-10T17:21:59.376Z,101442.44
2022-08-10T17:24:33.122Z,101438.31
2022-08-10T17:28:04.385Z,101443.00
2022-08-10T17:30:04.311Z,101436.13
2022-08-10T17:32:53.715Z,101441.78
2022-08-10T17:35:23.961Z,101436.91
2022-08-10T17:38:02.172Z,101439.75
2022-08-10T17:40:30.626Z,101440.25
2022-08-10T17:42:59.204Z,101437.06
2022-08-10T17:45:47.437Z,101429.63
2022-08-10T17:48:17.973Z,101432.34
2022-08-10T17:50:50.122Z,101436.66
2022-08-10T17:53:24.941Z,101431.91
2022-08-10T17:55:57.331Z,101430.94
2022-08-10T17:58:27.705Z,101442.25
2022-08-10T18:01:41.812Z,101429.50
2022-08-10T18:03:52.843Z,101428.28
2022-08-10T18:06:20.571Z,101429.03
2022-08-10T18:33:28.803Z,101452.19
2022-08-10T18:35:56.385Z,101452.66
2022-08-10T18:38:25.857Z,101452.91
2022-08-10T18:41:07.148Z,101458.00
2022-08-10T18:44:07.590Z,101457.00
2022-08-10T18:46:59.956Z,101459.25
2022-08-10T18:49:34.076Z,101462.50
2022-08-10T18:52:04.677Z,101458.56
2022-08-10T18:54:44.270Z,101460.75
2022-08-10T18:57:35.835Z,101466.69
2022-08-10T19:00:17.821Z,101465.56
2022-08-10T19:02:50.475Z,101462.22
2022-08-10T19:05:35.191Z,101462.69
2022-08-10T19:08:49.583Z,101465.94
2022-08-10T19:11:53.629Z,101464.75
2022-08-10T19:14:30.412Z,101472.16
2022-08-10T19:16:59.643Z,101477.22
2022-08-10T19:19:33.993Z,101466.81
2022-08-10T19:22:37.851Z,101472.50
2022-08-10T19:26:43.302Z,101470.91
2022-08-10T19:28:16.057Z,101471.47
2022-08-10T19:30:51.947Z,101474.38
2022-08-10T19:34:11.811Z,101476.41
2022-08-10T19:36:55.116Z,101476.00
2022-08-10T19:39:28.691Z,101471.16
2022-08-10T19:42:11.304Z,101476.66
2022-08-10T19:44:51.164Z,101472.44
2022-08-10T19:47:17.577Z,101472.88
2022-08-10T19:49:55.268Z,101468.78
2022-08-10T19:52:49.545Z,101473.59
2022-08-10T19:55:43.383Z,101474.91
2022-08-10T19:58:26.283Z,101475.94
2022-08-10T20:01:03.197Z,101478.75
2022-08-10T20:04:29.432Z,101475.63
2022-08-10T20:07:19.614Z,101480.56
2022-08-10T20:10:00.227Z,101487.84
2022-08-10T20:12:51.982Z,101484.63
2022-08-10T20:15:31.757Z,101488.16
2022-08-10T20:18:24.387Z,101491.25
2022-08-10T20:21:03.375Z,101491.59
2022-08-10T20:23:35.408Z,101480.28
2022-08-10T20:26:09.388Z,101493.91
2022-08-10T20:29:03.980Z,101485.19
2022-08-10T20:31:41.401Z,101496.25
2022-08-10T20:34:23.037Z,101492.97
2022-08-10T20:37:06.019Z,101495.00
2022-08-10T20:39:56.740Z,101492.50
2022-08-10T20:42:32.658Z,101495.28
2022-08-10T20:45:07.165Z,101499.91
2022-08-10T20:47:55.209Z,101487.59
2022-08-10T20:50:35.016Z,101493.00
2022-08-10T20:53:08.663Z,101497.84
2022-08-10T20:55:54.353Z,101505.19
2022-08-10T20:58:37.492Z,101501.75
2022-08-10T21:01:12.950Z,101504.66
2022-08-10T21:04:13.239Z,101494.22
2022-08-10T21:07:28.440Z,101497.13
2022-08-10T21:10:23.506Z,101497.50
2022-08-10T21:13:16.815Z,101499.53
2022-08-10T21:15:57.871Z,101500.59
2022-08-10T21:18:45.711Z,101498.09
2022-08-10T21:21:41.467Z,101499.06
2022-08-10T21:24:20.035Z,101496.47
2022-08-10T21:27:33.374Z,101492.25
2022-08-10T21:29:59.960Z,101491.72
2022-08-10T21:32:29.018Z,101491.94
2022-08-10T21:35:01.996Z,101492.06
2022-08-10T21:37:56.855Z,101495.91
2022-08-10T21:41:18.603Z,101489.00
2022-08-10T21:44:09.195Z,101488.38
2022-08-10T21:47:40.047Z,101495.72
2022-08-10T21:50:27.636Z,101494.84
2022-08-10T21:54:03.069Z,101486.25
2022-08-10T21:56:59.573Z,101492.75
2022-08-10T21:59:50.995Z,101488.84
2022-08-10T22:02:50.161Z,101495.03
2022-08-10T22:05:42.972Z,101486.25
2022-08-10T22:08:32.111Z,101483.88
2022-08-10T22:11:20.144Z,101490.47
2022-08-10T22:14:09.496Z,101481.56
2022-08-10T22:18:01.263Z,101483.50
2022-08-10T22:20:28.293Z,101480.88
2022-08-10T22:23:45.575Z,101479.38
2022-08-10T22:27:06.285Z,101481.56
2022-08-10T22:29:59.732Z,101478.13
2022-08-10T22:32:58.533Z,101475.72
2022-08-10T22:35:59.065Z,101474.00
2022-08-10T22:38:59.127Z,101470.63
2022-08-10T22:42:09.860Z,101477.19
2022-08-10T22:45:02.369Z,101477.28
2022-08-10T22:47:50.880Z,101478.34
2022-08-10T22:50:28.328Z,101475.88
2022-08-10T22:53:04.663Z,101476.91
2022-08-10T22:55:55.090Z,101469.94
2022-08-10T22:58:39.971Z,101472.88
2022-08-10T23:01:13.069Z,101473.16
2022-08-10T23:03:51.745Z,101473.16
2022-08-10T23:06:21.118Z,101472.75
2022-08-10T23:08:52.826Z,101472.16
2022-08-10T23:11:26.311Z,101484.00
2022-08-10T23:14:00.059Z,101484.19
2022-08-10T23:16:47.609Z,101480.72
2022-08-10T23:19:39.457Z,101476.50
2022-08-10T23:22:09.743Z,101482.97
2022-08-10T23:24:42.954Z,101483.25
2022-08-10T23:27:13.017Z,101485.06
2022-08-10T23:30:10.134Z,101484.31
2022-08-10T23:32:40.783Z,101482.94
2022-08-10T23:36:30.210Z,101482.94
2022-08-10T23:38:04.841Z,101485.91
2022-08-10T23:40:33.046Z,101488.78
2022-08-10T23:43:00.312Z,101489.09
2022-08-10T23:45:28.871Z,101478.63
2022-08-10T23:48:18.978Z,101477.13
2022-08-10T23:50:53.347Z,101483.53
2022-08-10T23:53:28.818Z,101474.91
2022-08-10T23:56:07.783Z,101478.84
2022-08-10T23:58:37.724Z,101476.47
